sensor_id;sensor_type;location;lat;lon;timestamp;temperature;humidity
2212;DHT22;48849;48.758;9.158;2023-03-11T00:01:41;7.90;99.90
2212;DHT22;48849;48.758;9.158;2023-03-11T00:04:08;7.90;99.90
2212;DHT22;48849;48.758;9.158;2023-03-11T00:06:36;7.90;99.90
2212;DHT22;48849;48.758;9.158;2023-03-11T00:09:03;7.80;99.90
2212;DHT22;48849;48.758;9.158;2023-03-11T00:11:30;7.80;99.90
2212;DHT22;48849;48.758;9.158;2023-03-11T00:13:57;7.80;99.90
2212;DHT22;48849;48.758;9.158;2023-03-11T00:16:27;7.80;99.90
2212;DHT22;48849;48.758;9.158;2023-03-11T00:18:53;7.80;99.90
2212;DHT22;48849;48.758;9.158;2023-03-11T00:21:20;7.90;99.90
2212;DHT22;48849;48.758;9.158;2023-03-11T00:23:48;7.80;99.90
2212;DHT22;48849;48.758;9.158;2023-03-11T00:26:14;7.90;99.90
2212;DHT22;48849;48.758;9.158;2023-03-11T00:28:41;7.90;99.90
2212;DHT22;48849;48.758;9.158;2023-03-11T00:31:10;7.90;99.90
2212;DHT22;48849;48.758;9.158;2023-03-11T00:33:37;7.90;99.90
2212;DHT22;48849;48.758;9.158;2023-03-11T00:36:05;7.90;99.90
2212;DHT22;48849;48.758;9.158;2023-03-11T00:38:32;7.90;99.90
2212;DHT22;48849;48.758;9.158;2023-03-11T00:41:00;7.90;99.90
2212;DHT22;48849;48.758;9.158;2023-03-11T00:43:27;7.80;99.90
2212;DHT22;48849;48.758;9.158;2023-03-11T00:45:53;7.80;99.90
2212;DHT22;48849;48.758;9.158;2023-03-11T00:48:20;7.70;99.90
2212;DHT22;48849;48.758;9.158;2023-03-11T00:50:47;7.70;99.90
2212;DHT22;48849;48.758;9.158;2023-03-11T00:53:15;7.60;99.90
2212;DHT22;48849;48.758;9.158;2023-03-11T00:55:41;7.70;99.90
2212;DHT22;48849;48.758;9.158;2023-03-11T00:58:11;7.70;99.90
2212;DHT22;48849;48.758;9.158;2023-03-11T01:00:38;7.70;99.90
2212;DHT22;48849;48.758;9.158;2023-03-11T01:03:05;7.70;99.90
2212;DHT22;48849;48.758;9.158;2023-03-11T01:05:33;7.70;99.90
2212;DHT22;48849;48.758;9.158;2023-03-11T01:08:00;7.70;99.90
2212;DHT22;48849;48.758;9.158;2023-03-11T01:10:27;7.70;99.90
2212;DHT22;48849;48.758;9.158;2023-03-11T01:12:54;7.80;99.90
2212;DHT22;48849;48.758;9.158;2023-03-11T01:15:25;7.70;99.90
2212;DHT22;48849;48.758;9.158;2023-03-11T01:17:52;7.70;99.90
2212;DHT22;48849;48.758;9.158;2023-03-11T01:20:19;7.80;99.90
2212;DHT22;48849;48.758;9.158;2023-03-11T01:22:46;7.80;99.90
2212;DHT22;48849;48.758;9.158;2023-03-11T01:25:15;7.70;99.90
2212;DHT22;48849;48.758;9.158;2023-03-11T01:27:42;7.70;99.90
2212;DHT22;48849;48.758;9.158;2023-03-11T01:30:13;7.60;99.90
2212;DHT22;48849;48.758;9.158;2023-03-11T01:32:41;7.50;99.90
2212;DHT22;48849;48.758;9.158;2023-03-11T01:35:10;7.60;99.90
2212;DHT22;48849;48.758;9.158;2023-03-11T01:37:37;7.50;99.90
2212;DHT22;48849;48.758;9.158;2023-03-11T01:40:05;7.50;99.90
2212;DHT22;48849;48.758;9.158;2023-03-11T01:42:32;7.50;99.90
2212;DHT22;48849;48.758;9.158;2023-03-11T01:44:58;7.50;99.90
2212;DHT22;48849;48.758;9.158;2023-03-11T01:47:37;7.50;99.90
2212;DHT22;48849;48.758;9.158;2023-03-11T01:50:09;7.50;99.90
2212;DHT22;48849;48.758;9.158;2023-03-11T01:52:37;7.50;99.90
2212;DHT22;48849;48.758;9.158;2023-03-11T01:55:05;7.40;99.90
2212;DHT22;48849;48.758;9.158;2023-03-11T01:57:32;7.50;99.90
2212;DHT22;48849;48.758;9.158;2023-03-11T02:00:01;7.50;99.90
2212;DHT22;48849;48.758;9.158;2023-03-11T02:02:33;7.50;99.90
2212;DHT22;48849;48.758;9.158;2023-03-11T02:05:01;7.50;99.90
2212;DHT22;48849;48.758;9.158;2023-03-11T02:07:30;7.50;99.90
2212;DHT22;48849;48.758;9.158;2023-03-11T02:09:57;7.50;99.90
2212;DHT22;48849;48.758;9.158;2023-03-11T02:12:24;7.50;99.90
2212;DHT22;48849;48.758;9.158;2023-03-11T02:14:54;7.50;99.90
2212;DHT22;48849;48.758;9.158;2023-03-11T02:17:21;7.40;99.90
2212;DHT22;48849;48.758;9.158;2023-03-11T02:19:56;7.40;99.90
2212;DHT22;48849;48.758;9.158;2023-03-11T02:22:25;7.50;99.90
2212;DHT22;48849;48.758;9.158;2023-03-11T02:24:59;7.40;99.90
2212;DHT22;48849;48.758;9.158;2023-03-11T02:27:30;7.50;99.90
2212;DHT22;48849;48.758;9.158;2023-03-11T02:29:59;7.30;99.90
2212;DHT22;48849;48.758;9.158;2023-03-11T02:32:26;7.30;99.90
2212;DHT22;48849;48.758;9.158;2023-03-11T02:34:53;7.30;99.90
2212;DHT22;48849;48.758;9.158;2023-03-11T02:37:20;7.30;99.90
2212;DHT22;48849;48.758;9.158;2023-03-11T02:39:48;7.30;99.90
2212;DHT22;48849;48.758;9.158;2023-03-11T02:42:18;7.20;99.90
2212;DHT22;48849;48.758;9.158;2023-03-11T02:44:51;7.20;99.90
2212;DHT22;48849;48.758;9.158;2023-03-11T02:47:20;7.20;99.90
2212;DHT22;48849;48.758;9.158;2023-03-11T02:49:46;7.20;99.90
2212;DHT22;48849;48.758;9.158;2023-03-11T02:52:13;7.10;99.90
2212;DHT22;48849;48.758;9.158;2023-03-11T02:54:40;7.10;99.90
2212;DHT22;48849;48.758;9.158;2023-03-11T02:57:07;7.20;99.90
2212;DHT22;48849;48.758;9.158;2023-03-11T02:59:33;7.20;99.90
2212;DHT22;48849;48.758;9.158;2023-03-11T03:02:01;7.20;99.90
2212;DHT22;48849;48.758;9.158;2023-03-11T03:04:28;7.20;99.90
2212;DHT22;48849;48.758;9.158;2023-03-11T03:06:55;7.20;99.90
2212;DHT22;48849;48.758;9.158;2023-03-11T03:09:21;7.20;99.90
2212;DHT22;48849;48.758;9.158;2023-03-11T03:11:48;7.00;99.90
2212;DHT22;48849;48.758;9.158;2023-03-11T03:14:15;7.20;99.90
2212;DHT22;48849;48.758;9.158;2023-03-11T03:16:41;7.20;99.90
2212;DHT22;48849;48.758;9.158;2023-03-11T03:19:09;7.10;99.90
2212;DHT22;48849;48.758;9.158;2023-03-11T03:21:36;7.20;99.90
2212;DHT22;48849;48.758;9.158;2023-03-11T03:24:03;7.00;99.90
2212;DHT22;48849;48.758;9.158;2023-03-11T03:26:30;7.00;99.90
2212;DHT22;48849;48.758;9.158;2023-03-11T03:28:56;7.00;99.90
2212;DHT22;48849;48.758;9.158;2023-03-11T03:31:23;6.90;99.90
2212;DHT22;48849;48.758;9.158;2023-03-11T03:33:50;6.80;99.90
2212;DHT22;48849;48.758;9.158;2023-03-11T03:36:18;6.80;99.90
2212;DHT22;48849;48.758;9.158;2023-03-11T03:38:44;6.80;99.90
2212;DHT22;48849;48.758;9.158;2023-03-11T03:41:12;6.70;99.90
2212;DHT22;48849;48.758;9.158;2023-03-11T03:43:40;6.70;99.90
2212;DHT22;48849;48.758;9.158;2023-03-11T03:46:06;6.70;99.90
2212;DHT22;48849;48.758;9.158;2023-03-11T03:48:33;6.70;99.90
2212;DHT22;48849;48.758;9.158;2023-03-11T03:51:03;6.80;99.90
2212;DHT22;48849;48.758;9.158;2023-03-11T03:53:32;6.70;99.90
2212;DHT22;48849;48.758;9.158;2023-03-11T03:56:01;6.70;99.90
2212;DHT22;48849;48.758;9.158;2023-03-11T03:58:28;6.70;99.90
2212;DHT22;48849;48.758;9.158;2023-03-11T04:00:55;6.70;99.90
2212;DHT22;48849;48.758;9.158;2023-03-11T04:03:22;6.60;99.90
2212;DHT22;48849;48.758;9.158;2023-03-11T04:05:49;6.60;99.90
2212;DHT22;48849;48.758;9.158;2023-03-11T04:08:16;6.60;99.90
2212;DHT22;48849;48.758;9.158;2023-03-11T04:10:44;6.60;99.90
2212;DHT22;48849;48.758;9.158;2023-03-11T04:13:11;6.50;99.90
2212;DHT22;48849;48.758;9.158;2023-03-11T04:15:38;6.60;99.90
2212;DHT22;48849;48.758;9.158;2023-03-11T04:18:04;6.50;99.90
2212;DHT22;48849;48.758;9.158;2023-03-11T04:20:31;6.50;99.90
2212;DHT22;48849;48.758;9.158;2023-03-11T04:22:58;6.40;99.90
2212;DHT22;48849;48.758;9.158;2023-03-11T04:25:24;6.40;99.90
2212;DHT22;48849;48.758;9.158;2023-03-11T04:27:52;6.30;99.90
2212;DHT22;48849;48.758;9.158;2023-03-11T04:30:19;6.10;99.90
2212;DHT22;48849;48.758;9.158;2023-03-11T04:32:46;6.10;99.90
2212;DHT22;48849;48.758;9.158;2023-03-11T04:35:12;6.30;99.90
2212;DHT22;48849;48.758;9.158;2023-03-11T04:37:39;6.30;99.90
2212;DHT22;48849;48.758;9.158;2023-03-11T04:40:07;6.30;99.90
2212;DHT22;48849;48.758;9.158;2023-03-11T04:42:35;6.30;99.90
2212;DHT22;48849;48.758;9.158;2023-03-11T04:45:03;6.30;99.90
2212;DHT22;48849;48.758;9.158;2023-03-11T04:47:30;6.30;99.90
2212;DHT22;48849;48.758;9.158;2023-03-11T04:49:57;6.20;99.90
2212;DHT22;48849;48.758;9.158;2023-03-11T04:52:23;6.20;99.90
2212;DHT22;48849;48.758;9.158;2023-03-11T04:54:50;6.20;99.90
2212;DHT22;48849;48.758;9.158;2023-03-11T04:57:17;6.10;99.90
2212;DHT22;48849;48.758;9.158;2023-03-11T04:59:43;6.00;99.90
2212;DHT22;48849;48.758;9.158;2023-03-11T05:02:11;5.90;99.90
2212;DHT22;48849;48.758;9.158;2023-03-11T05:04:38;5.90;99.90
2212;DHT22;48849;48.758;9.158;2023-03-11T05:07:05;5.90;99.90
2212;DHT22;48849;48.758;9.158;2023-03-11T05:09:33;6.00;99.90
2212;DHT22;48849;48.758;9.158;2023-03-11T05:12:00;5.90;99.90
2212;DHT22;48849;48.758;9.158;2023-03-11T05:14:26;5.90;99.90
2212;DHT22;48849;48.758;9.158;2023-03-11T05:16:53;5.90;99.90
2212;DHT22;48849;48.758;9.158;2023-03-11T05:19:21;5.90;99.90
2212;DHT22;48849;48.758;9.158;2023-03-11T05:21:59;5.90;99.90
2212;DHT22;48849;48.758;9.158;2023-03-11T05:24:26;6.00;99.90
2212;DHT22;48849;48.758;9.158;2023-03-11T05:26:53;5.90;99.90
2212;DHT22;48849;48.758;9.158;2023-03-11T05:29:20;5.90;99.90
2212;DHT22;48849;48.758;9.158;2023-03-11T05:31:47;5.90;99.90
2212;DHT22;48849;48.758;9.158;2023-03-11T05:34:14;5.80;99.90
2212;DHT22;48849;48.758;9.158;2023-03-11T05:36:42;5.80;99.90
2212;DHT22;48849;48.758;9.158;2023-03-11T05:39:09;5.80;99.90
2212;DHT22;48849;48.758;9.158;2023-03-11T05:41:36;5.80;99.90
2212;DHT22;48849;48.758;9.158;2023-03-11T05:44:03;5.80;99.90
2212;DHT22;48849;48.758;9.158;2023-03-11T05:46:30;5.80;99.90
2212;DHT22;48849;48.758;9.158;2023-03-11T05:48:58;5.80;99.90
2212;DHT22;48849;48.758;9.158;2023-03-11T05:51:25;5.80;99.90
2212;DHT22;48849;48.758;9.158;2023-03-11T05:53:53;5.70;99.90
2212;DHT22;48849;48.758;9.158;2023-03-11T05:56:21;5.70;99.90
2212;DHT22;48849;48.758;9.158;2023-03-11T05:58:49;5.70;99.90
2212;DHT22;48849;48.758;9.158;2023-03-11T06:01:17;5.80;99.90
2212;DHT22;48849;48.758;9.158;2023-03-11T06:03:44;5.80;99.90
2212;DHT22;48849;48.758;9.158;2023-03-11T06:06:11;5.80;99.90
2212;DHT22;48849;48.758;9.158;2023-03-11T06:08:38;5.80;99.90
2212;DHT22;48849;48.758;9.158;2023-03-11T06:11:11;5.80;99.90
2212;DHT22;48849;48.758;9.158;2023-03-11T06:13:38;5.70;99.90
2212;DHT22;48849;48.758;9.158;2023-03-11T06:16:06;5.70;99.90
2212;DHT22;48849;48.758;9.158;2023-03-11T06:18:33;5.70;99.90
2212;DHT22;48849;48.758;9.158;2023-03-11T06:21:01;5.80;99.90
2212;DHT22;48849;48.758;9.158;2023-03-11T06:23:28;5.80;99.90
2212;DHT22;48849;48.758;9.158;2023-03-11T06:25:56;5.70;99.90
2212;DHT22;48849;48.758;9.158;2023-03-11T06:28:24;5.70;99.90
2212;DHT22;48849;48.758;9.158;2023-03-11T06:30:51;5.60;99.90
2212;DHT22;48849;48.758;9.158;2023-03-11T06:33:21;5.70;99.90
2212;DHT22;48849;48.758;9.158;2023-03-11T06:35:55;5.70;99.90
2212;DHT22;48849;48.758;9.158;2023-03-11T06:38:23;5.70;99.90
2212;DHT22;48849;48.758;9.158;2023-03-11T06:40:50;5.70;99.90
2212;DHT22;48849;48.758;9.158;2023-03-11T06:43:16;5.60;99.90
2212;DHT22;48849;48.758;9.158;2023-03-11T06:45:45;5.60;99.90
2212;DHT22;48849;48.758;9.158;2023-03-11T06:48:11;5.60;99.90
2212;DHT22;48849;48.758;9.158;2023-03-11T06:50:38;5.70;99.90
2212;DHT22;48849;48.758;9.158;2023-03-11T06:53:05;5.80;99.90
2212;DHT22;48849;48.758;9.158;2023-03-11T06:55:32;5.80;99.90
2212;DHT22;48849;48.758;9.158;2023-03-11T06:57:59;5.80;99.90
2212;DHT22;48849;48.758;9.158;2023-03-11T07:00:25;5.90;99.90
2212;DHT22;48849;48.758;9.158;2023-03-11T07:02:53;5.80;99.90
2212;DHT22;48849;48.758;9.158;2023-03-11T07:05:20;5.70;99.90
2212;DHT22;48849;48.758;9.158;2023-03-11T07:07:47;5.80;99.90
2212;DHT22;48849;48.758;9.158;2023-03-11T07:10:14;5.80;99.90
2212;DHT22;48849;48.758;9.158;2023-03-11T07:12:40;5.90;99.90
2212;DHT22;48849;48.758;9.158;2023-03-11T07:15:08;5.80;99.90
2212;DHT22;48849;48.758;9.158;2023-03-11T07:17:35;5.70;99.90
2212;DHT22;48849;48.758;9.158;2023-03-11T07:20:03;5.70;99.90
2212;DHT22;48849;48.758;9.158;2023-03-11T07:22:30;5.80;99.90
2212;DHT22;48849;48.758;9.158;2023-03-11T07:24:57;5.80;99.90
2212;DHT22;48849;48.758;9.158;2023-03-11T07:27:24;5.90;99.90
2212;DHT22;48849;48.758;9.158;2023-03-11T07:29:50;6.00;99.90
2212;DHT22;48849;48.758;9.158;2023-03-11T07:32:17;6.00;99.90
2212;DHT22;48849;48.758;9.158;2023-03-11T07:34:44;6.10;99.90
2212;DHT22;48849;48.758;9.158;2023-03-11T07:37:12;6.20;99.90
2212;DHT22;48849;48.758;9.158;2023-03-11T07:39:38;6.20;99.90
2212;DHT22;48849;48.758;9.158;2023-03-11T07:42:05;6.30;99.90
2212;DHT22;48849;48.758;9.158;2023-03-11T07:44:32;6.40;99.90
2212;DHT22;48849;48.758;9.158;2023-03-11T07:47:01;6.30;99.90
2212;DHT22;48849;48.758;9.158;2023-03-11T07:49:27;6.40;99.90
2212;DHT22;48849;48.758;9.158;2023-03-11T07:51:54;6.30;99.90
2212;DHT22;48849;48.758;9.158;2023-03-11T07:54:22;6.40;99.90
2212;DHT22;48849;48.758;9.158;2023-03-11T07:56:49;6.40;99.90
2212;DHT22;48849;48.758;9.158;2023-03-11T07:59:15;6.40;99.90
2212;DHT22;48849;48.758;9.158;2023-03-11T08:01:42;6.50;99.90
2212;DHT22;48849;48.758;9.158;2023-03-11T08:04:13;6.50;99.90
2212;DHT22;48849;48.758;9.158;2023-03-11T08:06:42;6.60;99.90
2212;DHT22;48849;48.758;9.158;2023-03-11T08:09:09;6.60;99.90
2212;DHT22;48849;48.758;9.158;2023-03-11T08:11:38;6.60;99.90
2212;DHT22;48849;48.758;9.158;2023-03-11T08:14:05;6.60;99.90
2212;DHT22;48849;48.758;9.158;2023-03-11T08:16:32;6.70;99.90
2212;DHT22;48849;48.758;9.158;2023-03-11T08:18:59;6.70;99.90
2212;DHT22;48849;48.758;9.158;2023-03-11T08:21:28;6.70;99.90
2212;DHT22;48849;48.758;9.158;2023-03-11T08:23:57;6.80;99.90
2212;DHT22;48849;48.758;9.158;2023-03-11T08:26:24;6.80;99.90
2212;DHT22;48849;48.758;9.158;2023-03-11T08:28:52;6.80;99.90
2212;DHT22;48849;48.758;9.158;2023-03-11T08:31:21;6.80;99.90
2212;DHT22;48849;48.758;9.158;2023-03-11T08:33:49;6.80;99.90
2212;DHT22;48849;48.758;9.158;2023-03-11T08:36:17;6.80;99.90
2212;DHT22;48849;48.758;9.158;2023-03-11T08:38:44;6.80;99.90
2212;DHT22;48849;48.758;9.158;2023-03-11T08:41:11;6.80;99.90
2212;DHT22;48849;48.758;9.158;2023-03-11T08:43:38;6.90;99.90
2212;DHT22;48849;48.758;9.158;2023-03-11T08:46:07;6.90;99.90
2212;DHT22;48849;48.758;9.158;2023-03-11T08:48:35;6.90;99.90
2212;DHT22;48849;48.758;9.158;2023-03-11T08:51:08;7.00;99.90
2212;DHT22;48849;48.758;9.158;2023-03-11T08:53:35;7.00;99.90
2212;DHT22;48849;48.758;9.158;2023-03-11T08:56:02;7.00;99.90
2212;DHT22;48849;48.758;9.158;2023-03-11T08:58:28;7.00;99.90
2212;DHT22;48849;48.758;9.158;2023-03-11T09:00:55;7.00;99.90
2212;DHT22;48849;48.758;9.158;2023-03-11T09:03:24;7.00;99.90
2212;DHT22;48849;48.758;9.158;2023-03-11T09:05:55;7.10;99.90
2212;DHT22;48849;48.758;9.158;2023-03-11T09:08:22;7.10;99.90
2212;DHT22;48849;48.758;9.158;2023-03-11T09:10:49;7.10;99.90
2212;DHT22;48849;48.758;9.158;2023-03-11T09:13:15;7.20;99.90
2212;DHT22;48849;48.758;9.158;2023-03-11T09:15:42;7.20;99.90
2212;DHT22;48849;48.758;9.158;2023-03-11T09:18:11;7.30;99.90
2212;DHT22;48849;48.758;9.158;2023-03-11T09:20:39;7.30;99.90
2212;DHT22;48849;48.758;9.158;2023-03-11T09:23:07;7.30;99.90
2212;DHT22;48849;48.758;9.158;2023-03-11T09:25:34;7.40;99.90
2212;DHT22;48849;48.758;9.158;2023-03-11T09:28:01;7.40;99.90
2212;DHT22;48849;48.758;9.158;2023-03-11T09:30:28;7.40;99.90
2212;DHT22;48849;48.758;9.158;2023-03-11T09:32:55;7.40;99.90
2212;DHT22;48849;48.758;9.158;2023-03-11T09:35:21;7.50;99.90
2212;DHT22;48849;48.758;9.158;2023-03-11T09:37:50;7.50;99.90
2212;DHT22;48849;48.758;9.158;2023-03-11T09:40:18;7.50;99.90
2212;DHT22;48849;48.758;9.158;2023-03-11T09:42:53;7.50;99.90
2212;DHT22;48849;48.758;9.158;2023-03-11T09:45:24;7.50;99.90
2212;DHT22;48849;48.758;9.158;2023-03-11T09:48:03;7.60;99.90
2212;DHT22;48849;48.758;9.158;2023-03-11T09:50:34;7.60;99.90
2212;DHT22;48849;48.758;9.158;2023-03-11T09:53:24;7.70;99.90
2212;DHT22;48849;48.758;9.158;2023-03-11T09:55:55;7.70;99.90
2212;DHT22;48849;48.758;9.158;2023-03-11T09:58:34;7.70;99.90
2212;DHT22;48849;48.758;9.158;2023-03-11T10:01:02;7.70;99.90
2212;DHT22;48849;48.758;9.158;2023-03-11T10:03:32;7.70;99.90
2212;DHT22;48849;48.758;9.158;2023-03-11T10:06:15;7.70;99.90
2212;DHT22;48849;48.758;9.158;2023-03-11T10:08:46;7.80;99.90
2212;DHT22;48849;48.758;9.158;2023-03-11T10:11:45;7.80;99.90
2212;DHT22;48849;48.758;9.158;2023-03-11T10:14:28;7.90;99.90
2212;DHT22;48849;48.758;9.158;2023-03-11T10:17:01;8.00;99.90
2212;DHT22;48849;48.758;9.158;2023-03-11T10:19:37;8.00;99.90
2212;DHT22;48849;48.758;9.158;2023-03-11T10:22:10;8.00;99.90
2212;DHT22;48849;48.758;9.158;2023-03-11T10:24:52;8.00;99.90
2212;DHT22;48849;48.758;9.158;2023-03-11T10:27:24;8.00;99.90
2212;DHT22;48849;48.758;9.158;2023-03-11T10:29:57;8.00;99.90
2212;DHT22;48849;48.758;9.158;2023-03-11T10:32:31;8.00;99.90
2212;DHT22;48849;48.758;9.158;2023-03-11T10:35:05;8.00;99.90
2212;DHT22;48849;48.758;9.158;2023-03-11T10:37:36;8.00;99.90
2212;DHT22;48849;48.758;9.158;2023-03-11T10:40:13;8.00;99.90
2212;DHT22;48849;48.758;9.158;2023-03-11T10:42:42;8.00;99.90
2212;DHT22;48849;48.758;9.158;2023-03-11T10:45:11;8.00;99.90
2212;DHT22;48849;48.758;9.158;2023-03-11T10:47:38;8.00;99.90
2212;DHT22;48849;48.758;9.158;2023-03-11T10:50:05;8.00;99.90
2212;DHT22;48849;48.758;9.158;2023-03-11T10:52:41;8.10;99.90
2212;DHT22;48849;48.758;9.158;2023-03-11T10:55:15;8.20;99.90
2212;DHT22;48849;48.758;9.158;2023-03-11T10:57:44;8.20;99.90
2212;DHT22;48849;48.758;9.158;2023-03-11T11:00:27;8.30;99.90
2212;DHT22;48849;48.758;9.158;2023-03-11T11:02:56;8.30;99.90
2212;DHT22;48849;48.758;9.158;2023-03-11T11:05:29;8.30;99.90
2212;DHT22;48849;48.758;9.158;2023-03-11T11:08:05;8.30;99.90
2212;DHT22;48849;48.758;9.158;2023-03-11T11:10:35;8.40;99.90
2212;DHT22;48849;48.758;9.158;2023-03-11T11:13:16;8.50;99.90
2212;DHT22;48849;48.758;9.158;2023-03-11T11:15:52;8.50;99.90
2212;DHT22;48849;48.758;9.158;2023-03-11T11:18:22;9.30;99.90
2212;DHT22;48849;48.758;9.158;2023-03-11T11:20:58;8.50;99.90
2212;DHT22;48849;48.758;9.158;2023-03-11T11:23:30;8.50;99.90
2212;DHT22;48849;48.758;9.158;2023-03-11T11:26:00;8.50;99.90
2212;DHT22;48849;48.758;9.158;2023-03-11T11:28:29;8.60;99.90
2212;DHT22;48849;48.758;9.158;2023-03-11T11:30:58;8.60;99.90
2212;DHT22;48849;48.758;9.158;2023-03-11T11:33:28;8.70;99.90
2212;DHT22;48849;48.758;9.158;2023-03-11T11:35:56;8.80;99.90
2212;DHT22;48849;48.758;9.158;2023-03-11T11:38:26;8.90;99.90
2212;DHT22;48849;48.758;9.158;2023-03-11T11:40:55;9.10;99.90
2212;DHT22;48849;48.758;9.158;2023-03-11T11:43:35;9.30;99.90
2212;DHT22;48849;48.758;9.158;2023-03-11T11:46:09;9.40;99.90
2212;DHT22;48849;48.758;9.158;2023-03-11T11:48:46;9.60;99.90
2212;DHT22;48849;48.758;9.158;2023-03-11T11:51:19;9.90;99.90
2212;DHT22;48849;48.758;9.158;2023-03-11T11:53:50;10.10;99.90
2212;DHT22;48849;48.758;9.158;2023-03-11T11:56:18;10.10;99.90
2212;DHT22;48849;48.758;9.158;2023-03-11T11:58:46;10.10;99.90
2212;DHT22;48849;48.758;9.158;2023-03-11T12:01:14;10.30;99.90
2212;DHT22;48849;48.758;9.158;2023-03-11T12:04:01;10.50;99.90
2212;DHT22;48849;48.758;9.158;2023-03-11T12:06:30;10.70;99.90
2212;DHT22;48849;48.758;9.158;2023-03-11T12:09:12;11.20;99.90
2212;DHT22;48849;48.758;9.158;2023-03-11T12:11:51;11.80;99.90
2212;DHT22;48849;48.758;9.158;2023-03-11T12:14:25;12.30;99.90
2212;DHT22;48849;48.758;9.158;2023-03-11T12:16:56;12.40;99.90
2212;DHT22;48849;48.758;9.158;2023-03-11T12:19:33;12.30;99.90
2212;DHT22;48849;48.758;9.158;2023-03-11T12:22:27;12.30;99.90
2212;DHT22;48849;48.758;9.158;2023-03-11T12:25:07;12.20;99.90
2212;DHT22;48849;48.758;9.158;2023-03-11T12:27:41;12.00;99.90
2212;DHT22;48849;48.758;9.158;2023-03-11T12:30:14;11.70;99.80
2212;DHT22;48849;48.758;9.158;2023-03-11T12:32:45;11.40;99.90
2212;DHT22;48849;48.758;9.158;2023-03-11T12:35:20;11.20;99.90
2212;DHT22;48849;48.758;9.158;2023-03-11T12:38:00;11.00;99.90
2212;DHT22;48849;48.758;9.158;2023-03-11T12:40:47;10.90;99.90
2212;DHT22;48849;48.758;9.158;2023-03-11T12:46:12;10.80;99.90
2212;DHT22;48849;48.758;9.158;2023-03-11T12:48:42;10.70;99.90
2212;DHT22;48849;48.758;9.158;2023-03-11T12:51:37;10.70;99.90
2212;DHT22;48849;48.758;9.158;2023-03-11T12:54:20;10.60;99.90
2212;DHT22;48849;48.758;9.158;2023-03-11T12:56:51;10.50;99.90
2212;DHT22;48849;48.758;9.158;2023-03-11T12:59:48;10.40;99.90
2212;DHT22;48849;48.758;9.158;2023-03-11T13:02:35;10.30;99.90
2212;DHT22;48849;48.758;9.158;2023-03-11T13:05:16;10.30;99.90
2212;DHT22;48849;48.758;9.158;2023-03-11T13:07:48;10.10;99.90
2212;DHT22;48849;48.758;9.158;2023-03-11T13:10:43;10.10;99.90
2212;DHT22;48849;48.758;9.158;2023-03-11T13:13:37;10.00;99.90
2212;DHT22;48849;48.758;9.158;2023-03-11T13:16:34;10.00;99.90
2212;DHT22;48849;48.758;9.158;2023-03-11T13:19:34;9.90;99.90
2212;DHT22;48849;48.758;9.158;2023-03-11T13:22:03;9.90;99.90
2212;DHT22;48849;48.758;9.158;2023-03-11T13:24:47;9.80;99.90
2212;DHT22;48849;48.758;9.158;2023-03-11T13:27:26;9.70;99.90
2212;DHT22;48849;48.758;9.158;2023-03-11T13:30:04;9.70;99.90
2212;DHT22;48849;48.758;9.158;2023-03-11T13:35:46;9.60;99.90
2212;DHT22;48849;48.758;9.158;2023-03-11T13:38:37;9.50;99.90
2212;DHT22;48849;48.758;9.158;2023-03-11T13:41:14;9.50;99.90
2212;DHT22;48849;48.758;9.158;2023-03-11T13:43:46;9.50;99.90
2212;DHT22;48849;48.758;9.158;2023-03-11T13:46:23;9.50;99.90
2212;DHT22;48849;48.758;9.158;2023-03-11T13:48:56;9.50;99.90
2212;DHT22;48849;48.758;9.158;2023-03-11T13:51:34;9.50;99.90
2212;DHT22;48849;48.758;9.158;2023-03-11T13:54:03;9.40;99.90
2212;DHT22;48849;48.758;9.158;2023-03-11T13:56:33;9.40;99.90
2212;DHT22;48849;48.758;9.158;2023-03-11T13:59:15;9.40;99.90
2212;DHT22;48849;48.758;9.158;2023-03-11T14:01:47;9.40;99.90
2212;DHT22;48849;48.758;9.158;2023-03-11T14:04:17;9.40;99.90
2212;DHT22;48849;48.758;9.158;2023-03-11T14:06:47;9.30;99.90
2212;DHT22;48849;48.758;9.158;2023-03-11T14:09:18;9.30;99.90
2212;DHT22;48849;48.758;9.158;2023-03-11T14:11:45;9.30;99.90
2212;DHT22;48849;48.758;9.158;2023-03-11T14:14:39;9.40;99.90
2212;DHT22;48849;48.758;9.158;2023-03-11T14:17:12;9.40;99.90
2212;DHT22;48849;48.758;9.158;2023-03-11T14:19:39;9.40;99.90
2212;DHT22;48849;48.758;9.158;2023-03-11T14:22:08;9.40;99.90
2212;DHT22;48849;48.758;9.158;2023-03-11T14:24:36;9.40;99.90
2212;DHT22;48849;48.758;9.158;2023-03-11T14:27:08;9.40;99.90
2212;DHT22;48849;48.758;9.158;2023-03-11T14:29:36;9.50;99.90
2212;DHT22;48849;48.758;9.158;2023-03-11T14:32:15;9.50;99.90
2212;DHT22;48849;48.758;9.158;2023-03-11T14:34:46;9.60;99.90
2212;DHT22;48849;48.758;9.158;2023-03-11T14:37:24;9.60;99.90
2212;DHT22;48849;48.758;9.158;2023-03-11T14:39:51;9.60;99.90
2212;DHT22;48849;48.758;9.158;2023-03-11T14:42:21;9.60;99.90
2212;DHT22;48849;48.758;9.158;2023-03-11T14:44:55;9.60;99.90
2212;DHT22;48849;48.758;9.158;2023-03-11T14:47:30;9.60;99.90
2212;DHT22;48849;48.758;9.158;2023-03-11T14:49:58;9.70;99.90
2212;DHT22;48849;48.758;9.158;2023-03-11T14:52:31;9.60;99.90
2212;DHT22;48849;48.758;9.158;2023-03-11T14:54:59;9.60;99.90
2212;DHT22;48849;48.758;9.158;2023-03-11T14:57:33;9.70;99.90
2212;DHT22;48849;48.758;9.158;2023-03-11T15:00:02;9.60;99.90
2212;DHT22;48849;48.758;9.158;2023-03-11T15:02:40;9.70;99.90
2212;DHT22;48849;48.758;9.158;2023-03-11T15:05:13;9.70;99.90
2212;DHT22;48849;48.758;9.158;2023-03-11T15:07:45;9.70;99.90
2212;DHT22;48849;48.758;9.158;2023-03-11T15:10:13;9.70;99.90
2212;DHT22;48849;48.758;9.158;2023-03-11T15:12:41;9.70;99.90
2212;DHT22;48849;48.758;9.158;2023-03-11T15:15:23;9.70;99.90
2212;DHT22;48849;48.758;9.158;2023-03-11T15:17:53;9.70;99.90
2212;DHT22;48849;48.758;9.158;2023-03-11T15:20:23;9.70;99.90
2212;DHT22;48849;48.758;9.158;2023-03-11T15:22:54;9.70;99.90
2212;DHT22;48849;48.758;9.158;2023-03-11T15:25:28;9.70;99.90
2212;DHT22;48849;48.758;9.158;2023-03-11T15:27:55;9.70;99.90
2212;DHT22;48849;48.758;9.158;2023-03-11T15:30:24;9.70;99.90
2212;DHT22;48849;48.758;9.158;2023-03-11T15:32:51;9.70;99.90
2212;DHT22;48849;48.758;9.158;2023-03-11T15:35:20;9.70;99.90
2212;DHT22;48849;48.758;9.158;2023-03-11T15:37:48;9.70;99.90
2212;DHT22;48849;48.758;9.158;2023-03-11T15:40:22;9.70;99.90
2212;DHT22;48849;48.758;9.158;2023-03-11T15:43:11;9.70;99.90
2212;DHT22;48849;48.758;9.158;2023-03-11T15:45:43;9.70;99.90
2212;DHT22;48849;48.758;9.158;2023-03-11T15:48:10;9.70;99.90
2212;DHT22;48849;48.758;9.158;2023-03-11T15:50:45;9.70;99.90
2212;DHT22;48849;48.758;9.158;2023-03-11T15:53:13;9.60;99.90
2212;DHT22;48849;48.758;9.158;2023-03-11T15:55:41;9.60;99.90
2212;DHT22;48849;48.758;9.158;2023-03-11T15:58:08;9.60;99.90
2212;DHT22;48849;48.758;9.158;2023-03-11T16:00:35;10.10;99.90
2212;DHT22;48849;48.758;9.158;2023-03-11T16:03:02;9.50;99.90
2212;DHT22;48849;48.758;9.158;2023-03-11T16:05:29;9.50;99.90
2212;DHT22;48849;48.758;9.158;2023-03-11T16:07:56;9.50;99.90
2212;DHT22;48849;48.758;9.158;2023-03-11T16:10:23;9.50;99.90
2212;DHT22;48849;48.758;9.158;2023-03-11T16:12:51;9.50;99.90
2212;DHT22;48849;48.758;9.158;2023-03-11T16:15:21;9.50;99.90
2212;DHT22;48849;48.758;9.158;2023-03-11T16:17:51;9.50;99.90
2212;DHT22;48849;48.758;9.158;2023-03-11T16:20:19;9.40;99.90
2212;DHT22;48849;48.758;9.158;2023-03-11T16:22:47;9.40;99.90
2212;DHT22;48849;48.758;9.158;2023-03-11T16:25:19;9.40;99.90